createdAt,value
2018-12-15T00:00:12.053Z,84.24
2018-12-15T00:02:41.199Z,84.46
2018-12-15T00:05:10.433Z,84.13
2018-12-15T00:07:39.550Z,83.68
2018-12-15T00:10:08.724Z,83.44
2018-12-15T00:12:38.136Z,83.09
2018-12-15T00:15:08.819Z,83.17
2018-12-15T00:17:37.837Z,83.25
2018-12-15T00:20:07.790Z,83.69
2018-12-15T00:22:37.136Z,83.20
2018-12-15T00:25:06.333Z,83.31
2018-12-15T00:27:35.416Z,83.37
2018-12-15T00:30:04.967Z,83.71
2018-12-15T00:32:35.173Z,83.69
2018-12-15T00:35:04.557Z,83.28
2018-12-15T00:37:33.646Z,83.15
2018-12-15T00:40:02.952Z,83.42
2018-12-15T00:42:34.150Z,83.19
2018-12-15T00:45:03.299Z,83.67
2018-12-15T00:47:33.931Z,83.88
2018-12-15T00:50:03.102Z,84.21
2018-12-15T00:52:32.671Z,84.31
2018-12-15T00:55:01.680Z,84.22
2018-12-15T00:57:30.740Z,84.15
2018-12-15T00:59:59.721Z,83.93
2018-12-15T01:02:28.717Z,83.67
2018-12-15T01:04:57.880Z,83.92
2018-12-15T01:07:26.984Z,83.73
2018-12-15T01:09:56.117Z,83.48
2018-12-15T01:12:25.291Z,83.68
2018-12-15T01:14:54.968Z,83.74
2018-12-15T01:17:24.067Z,83.51
2018-12-15T01:19:53.142Z,83.31
2018-12-15T01:22:22.191Z,83.29
2018-12-15T01:24:51.204Z,83.36
2018-12-15T01:27:20.289Z,83.45
2018-12-15T01:29:49.352Z,83.43
2018-12-15T01:32:18.385Z,83.44
2018-12-15T01:34:47.457Z,83.36
2018-12-15T01:37:16.477Z,83.20
2018-12-15T01:39:45.513Z,83.28
2018-12-15T01:42:14.740Z,83.27
2018-12-15T01:44:43.765Z,83.65
2018-12-15T01:47:12.786Z,83.46
2018-12-15T01:49:41.769Z,83.60
2018-12-15T01:52:10.890Z,83.34
2018-12-15T01:54:39.879Z,83.56
2018-12-15T01:57:08.897Z,83.52
2018-12-15T01:59:37.935Z,83.33
2018-12-15T02:02:07.004Z,83.52
2018-12-15T02:04:36.171Z,83.18
2018-12-15T02:07:05.255Z,83.04
2018-12-15T02:09:34.327Z,82.87
2018-12-15T02:12:03.534Z,83.15
2018-12-15T02:14:32.873Z,83.23
2018-12-15T02:17:01.886Z,83.37
2018-12-15T02:19:31.168Z,83.68
2018-12-15T02:22:00.141Z,84.13
2018-12-15T02:24:29.113Z,83.88
2018-12-15T02:26:58.116Z,83.61
2018-12-15T02:29:27.145Z,83.60
2018-12-15T02:31:56.118Z,83.91
2018-12-15T02:34:25.257Z,84.01
2018-12-15T02:36:54.265Z,84.18
2018-12-15T02:39:23.703Z,84.16
2018-12-15T02:41:52.713Z,84.68
2018-12-15T02:44:21.727Z,84.76
2018-12-15T02:46:50.712Z,84.65
2018-12-15T02:49:19.707Z,84.43
2018-12-15T02:51:48.789Z,84.42
2018-12-15T02:54:18.014Z,84.73
2018-12-15T02:56:47.102Z,85.05
2018-12-15T02:59:16.097Z,84.94
2018-12-15T03:01:45.069Z,85.13
2018-12-15T03:04:14.134Z,85.44
2018-12-15T03:06:43.165Z,85.16
2018-12-15T03:09:12.172Z,85.46
2018-12-15T03:11:41.359Z,85.39
2018-12-15T03:14:10.358Z,85.22
2018-12-15T03:16:49.495Z,85.39
2018-12-15T03:19:18.466Z,85.44
2018-12-15T03:21:47.434Z,85.18
2018-12-15T03:24:16.430Z,85.01
2018-12-15T03:26:45.479Z,85.13
2018-12-15T03:29:14.519Z,85.09
2018-12-15T03:31:43.661Z,85.38
2018-12-15T03:34:12.644Z,85.45
2018-12-15T03:36:41.669Z,85.68
2018-12-15T03:39:10.732Z,86.00
2018-12-15T03:41:39.718Z,85.75
2018-12-15T03:44:08.831Z,85.32
2018-12-15T03:46:38.013Z,85.42
2018-12-15T03:49:07.936Z,85.68
2018-12-15T03:51:37.446Z,85.71
2018-12-15T03:54:06.523Z,85.88
2018-12-15T03:56:35.520Z,85.51
2018-12-15T03:59:04.650Z,85.41
2018-12-15T04:01:33.931Z,85.35
2018-12-15T04:04:02.999Z,85.24
2018-12-15T04:06:32.993Z,84.87
2018-12-15T04:09:01.994Z,84.81
2018-12-15T04:11:31.008Z,84.80
2018-12-15T04:14:00.030Z,84.81
2018-12-15T04:16:29.095Z,85.03
2018-12-15T04:18:58.094Z,85.18
2018-12-15T04:21:27.181Z,85.24
2018-12-15T04:23:56.889Z,85.33
2018-12-15T04:26:25.982Z,85.58
2018-12-15T04:29:01.656Z,85.50
2018-12-15T04:31:30.769Z,85.44
2018-12-15T04:33:59.766Z,85.59
2018-12-15T04:36:28.767Z,85.51
2018-12-15T04:38:58.009Z,85.75
2018-12-15T04:41:27.099Z,85.95
2018-12-15T04:43:56.348Z,85.91
2018-12-15T04:46:25.415Z,85.72
2018-12-15T04:48:54.430Z,85.85
2018-12-15T04:51:23.433Z,85.67
2018-12-15T04:53:52.428Z,85.94
2018-12-15T04:56:21.432Z,85.63
2018-12-15T04:58:50.447Z,85.92
2018-12-15T05:01:19.521Z,85.90
2018-12-15T05:03:48.514Z,85.93
2018-12-15T05:06:17.765Z,86.03
2018-12-15T05:08:46.756Z,86.13
2018-12-15T05:11:15.762Z,86.39
2018-12-15T05:13:44.829Z,86.41
2018-12-15T05:16:13.947Z,86.38
2018-12-15T05:18:42.955Z,86.29
2018-12-15T05:21:11.946Z,86.63
2018-12-15T05:23:40.955Z,86.80
2018-12-15T05:26:10.108Z,86.75
2018-12-15T05:28:39.125Z,87.17
2018-12-15T05:31:08.156Z,87.35
2018-12-15T05:33:37.746Z,87.36
2018-12-15T05:36:06.733Z,87.74
2018-12-15T05:38:35.777Z,87.92
2018-12-15T05:41:04.824Z,87.82
2018-12-15T05:43:33.871Z,87.78
2018-12-15T05:46:02.944Z,87.83
2018-12-15T05:48:31.999Z,87.98
2018-12-15T05:51:01.161Z,88.00
2018-12-15T05:53:30.185Z,88.19
2018-12-15T05:55:59.251Z,88.18
2018-12-15T05:58:28.316Z,88.36
2018-12-15T06:00:57.705Z,88.54
2018-12-15T06:03:26.705Z,88.71
2018-12-15T06:05:55.728Z,88.83
2018-12-15T06:08:24.727Z,88.76
2018-12-15T06:10:53.825Z,88.93
2018-12-15T06:13:22.819Z,89.17
2018-12-15T06:15:51.907Z,89.33
2018-12-15T06:18:20.960Z,89.21
2018-12-15T06:20:50.057Z,89.24
2018-12-15T06:23:19.201Z,89.33
2018-12-15T06:25:48.193Z,89.33
2018-12-15T06:28:17.281Z,89.43
2018-12-15T06:30:49.961Z,89.80
2018-12-15T06:33:19.272Z,89.97
2018-12-15T06:35:48.267Z,89.78
2018-12-15T06:38:17.375Z,89.80
2018-12-15T06:40:46.369Z,89.93
2018-12-15T06:43:15.515Z,89.90
2018-12-15T06:45:45.123Z,90.09
2018-12-15T06:48:14.375Z,89.76
2018-12-15T06:50:43.921Z,89.91
2018-12-15T06:53:13.007Z,89.93
2018-12-15T06:55:43.388Z,89.95
2018-12-15T06:58:12.415Z,90.23
2018-12-15T07:00:41.604Z,90.31
2018-12-15T07:03:10.708Z,90.07
2018-12-15T07:05:39.693Z,90.29
2018-12-15T07:08:09.050Z,90.31
2018-12-15T07:10:38.978Z,90.14
2018-12-15T07:13:08.848Z,90.54
2018-12-15T07:15:37.951Z,90.25
2018-12-15T07:18:07.027Z,90.34
2018-12-15T07:20:36.174Z,90.27
2018-12-15T07:23:05.234Z,90.50
2018-12-15T07:25:34.525Z,90.44
2018-12-15T07:28:03.564Z,90.62
2018-12-15T07:30:32.692Z,90.42
2018-12-15T07:33:01.787Z,90.43
2018-12-15T07:35:30.780Z,90.15
2018-12-15T07:37:59.833Z,90.27
2018-12-15T07:40:28.862Z,90.30
2018-12-15T07:42:57.856Z,90.25
2018-12-15T07:45:27.071Z,90.30
2018-12-15T07:47:56.140Z,90.27
2018-12-15T07:50:25.239Z,90.35
2018-12-15T07:52:54.213Z,90.07
2018-12-15T07:55:23.350Z,90.22
2018-12-15T07:57:52.463Z,90.13
2018-12-15T08:00:22.284Z,90.04
2018-12-15T08:02:52.025Z,89.90
2018-12-15T08:05:21.030Z,90.04
2018-12-15T08:07:51.122Z,90.11
2018-12-15T08:10:24.786Z,90.04
2018-12-15T08:13:00.134Z,89.97
2018-12-15T08:15:29.370Z,89.87
2018-12-15T08:17:58.498Z,89.72
2018-12-15T08:20:27.695Z,89.82
2018-12-15T08:22:56.682Z,89.62
2018-12-15T08:25:26.951Z,89.52
2018-12-15T08:27:55.988Z,89.50
2018-12-15T08:30:25.097Z,89.19
2018-12-15T08:32:54.097Z,89.32
2018-12-15T08:35:23.775Z,89.19
2018-12-15T08:37:52.866Z,89.14
2018-12-15T08:40:22.713Z,88.81
2018-12-15T08:42:51.835Z,88.98
2018-12-15T08:45:21.068Z,89.09
2018-12-15T08:47:50.097Z,88.85
2018-12-15T08:50:19.097Z,88.90
2018-12-15T08:52:48.248Z,88.99
2018-12-15T08:55:17.336Z,88.80
2018-12-15T08:57:46.438Z,88.80
2018-12-15T09:00:15.740Z,88.56
2018-12-15T09:02:44.873Z,88.67
2018-12-15T09:05:15.013Z,88.02
2018-12-15T09:07:44.090Z,88.06
2018-12-15T09:10:13.255Z,88.21
2018-12-15T09:12:42.274Z,88.06
2018-12-15T09:15:11.640Z,87.98
2018-12-15T09:17:40.691Z,88.12
2018-12-15T09:20:09.831Z,87.71
2018-12-15T09:22:38.976Z,87.63
2018-12-15T09:25:08.351Z,87.48
2018-12-15T09:27:37.734Z,87.24
2018-12-15T09:30:07.621Z,87.21
2018-12-15T09:32:36.800Z,87.14
2018-12-15T09:35:05.953Z,87.14
2018-12-15T09:37:35.237Z,86.85
2018-12-15T09:40:05.042Z,87.01
2018-12-15T09:42:34.259Z,86.86
2018-12-15T09:45:03.599Z,86.78
2018-12-15T09:47:32.670Z,86.64
2018-12-15T09:50:01.788Z,86.47
2018-12-15T09:52:30.850Z,86.10
2018-12-15T09:55:00.479Z,85.69
2018-12-15T09:57:29.494Z,85.73
2018-12-15T09:59:58.598Z,85.86
2018-12-15T10:02:27.649Z,85.68
2018-12-15T10:04:56.853Z,85.44
2018-12-15T10:07:26.124Z,85.55
2018-12-15T10:09:55.260Z,85.06
2018-12-15T10:12:24.438Z,84.94
2018-12-15T10:14:53.544Z,84.86
2018-12-15T10:17:22.629Z,84.78
2018-12-15T10:19:51.742Z,84.72
2018-12-15T10:22:20.709Z,84.39
2018-12-15T10:24:49.725Z,84.15
2018-12-15T10:27:18.831Z,83.97
2018-12-15T10:29:53.426Z,83.90
2018-12-15T10:32:27.777Z,83.67
2018-12-15T10:34:56.934Z,83.34
2018-12-15T10:37:26.206Z,83.29
2018-12-15T10:39:55.183Z,83.67
2018-12-15T10:42:26.430Z,83.45
2018-12-15T10:44:55.420Z,83.22
2018-12-15T10:47:24.450Z,82.84
2018-12-15T10:49:53.554Z,82.59
2018-12-15T10:52:22.645Z,82.21
2018-12-15T10:54:51.729Z,82.10
2018-12-15T10:57:20.749Z,81.82
2018-12-15T10:59:49.832Z,81.65
2018-12-15T11:02:18.958Z,81.28
2018-12-15T11:04:48.124Z,82.05
2018-12-15T11:07:17.204Z,81.52
2018-12-15T11:09:46.320Z,81.57
2018-12-15T11:12:15.403Z,81.62
2018-12-15T11:14:51.067Z,81.79
2018-12-15T11:17:20.177Z,81.66
2018-12-15T11:19:49.257Z,81.14
2018-12-15T11:22:18.258Z,80.70
2018-12-15T11:24:47.255Z,80.56
2018-12-15T11:27:16.289Z,80.46
2018-12-15T11:29:45.305Z,80.18
2018-12-15T11:32:14.410Z,80.08
2018-12-15T11:34:43.665Z,79.86
2018-12-15T11:37:12.851Z,80.01
2018-12-15T11:39:41.897Z,79.29
2018-12-15T11:42:10.943Z,79.00
2018-12-15T11:44:40.144Z,78.54
2018-12-15T11:47:09.158Z,78.88
2018-12-15T11:49:43.493Z,78.80
2018-12-15T11:52:09.428Z,78.93
2018-12-15T11:54:39.025Z,78.23
2018-12-15T11:57:08.195Z,78.43
2018-12-15T11:59:37.427Z,78.76
2018-12-15T12:02:06.575Z,78.94
2018-12-15T12:04:35.556Z,78.64
2018-12-15T12:07:04.577Z,77.95
2018-12-15T12:09:33.657Z,78.04
2018-12-15T12:12:02.647Z,77.66
2018-12-15T12:14:31.730Z,77.54
2018-12-15T12:17:00.883Z,77.35
2018-12-15T12:19:29.878Z,77.93
2018-12-15T12:21:59.257Z,77.68
2018-12-15T12:24:28.367Z,77.36
2018-12-15T12:26:57.413Z,77.00
2018-12-15T12:29:26.500Z,77.33
2018-12-15T12:31:56.441Z,76.95
2018-12-15T12:34:25.563Z,76.96
2018-12-15T12:36:54.621Z,77.63
2018-12-15T12:39:23.670Z,76.99
2018-12-15T12:41:53.865Z,76.41
2018-12-15T12:44:22.938Z,74.59
2018-12-15T12:46:52.829Z,74.39
2018-12-15T12:49:21.937Z,74.07
2018-12-15T12:51:51.925Z,72.34
2018-12-15T12:54:21.083Z,70.12
2018-12-15T12:56:50.081Z,70.25
2018-12-15T12:59:19.108Z,70.68
2018-12-15T13:01:48.152Z,70.24
2018-12-15T13:04:17.125Z,70.03
2018-12-15T13:06:46.168Z,70.37
2018-12-15T13:09:15.542Z,70.84
2018-12-15T13:11:44.755Z,71.71
2018-12-15T13:14:13.895Z,71.82
2018-12-15T13:16:49.714Z,71.44
2018-12-15T13:19:18.738Z,70.26
2018-12-15T13:21:47.867Z,70.79
2018-12-15T13:24:17.123Z,70.90
2018-12-15T13:26:46.200Z,70.82
2018-12-15T13:29:15.327Z,70.49
2018-12-15T13:31:46.850Z,70.02
2018-12-15T13:34:15.834Z,70.60
2018-12-15T13:36:45.410Z,70.17
2018-12-15T13:39:14.678Z,69.56
2018-12-15T13:41:43.701Z,69.23
2018-12-15T13:44:12.760Z,69.53
2018-12-15T13:46:41.882Z,69.39
2018-12-15T13:49:11.237Z,69.23
2018-12-15T13:51:40.339Z,69.36
2018-12-15T13:54:09.527Z,69.37
2018-12-15T13:56:38.608Z,69.12
2018-12-15T13:59:07.666Z,69.12
2018-12-15T14:01:37.730Z,69.12
2018-12-15T14:04:06.792Z,68.63
2018-12-15T14:06:35.806Z,69.38
2018-12-15T14:09:07.659Z,69.99
2018-12-15T14:11:36.773Z,69.44
2018-12-15T14:14:06.221Z,69.28
2018-12-15T14:16:35.273Z,69.71
2018-12-15T14:19:05.068Z,69.57
2018-12-15T14:21:34.428Z,70.30
2018-12-15T14:24:03.567Z,70.18
2018-12-15T14:26:32.684Z,69.78
2018-12-15T14:29:01.702Z,70.59
2018-12-15T14:31:30.730Z,69.86
2018-12-15T14:33:59.863Z,69.86
2018-12-15T14:36:28.879Z,69.69
2018-12-15T14:38:57.925Z,69.96
2018-12-15T14:41:26.918Z,70.50
2018-12-15T14:43:56.003Z,70.00
2018-12-15T14:46:25.043Z,69.52
2018-12-15T14:48:54.136Z,69.21
2018-12-15T14:51:23.427Z,69.51
2018-12-15T14:53:52.414Z,69.32
2018-12-15T14:56:21.415Z,69.19
2018-12-15T14:58:50.546Z,69.13
2018-12-15T15:01:19.647Z,69.33
2018-12-15T15:03:48.706Z,69.91
2018-12-15T15:06:17.911Z,69.62
2018-12-15T15:08:46.959Z,70.11
2018-12-15T15:11:16.444Z,70.77
2018-12-15T15:13:45.582Z,71.40
2018-12-15T15:16:15.235Z,71.82
2018-12-15T15:18:44.285Z,71.70
2018-12-15T15:21:13.436Z,71.34
2018-12-15T15:23:42.666Z,71.28
2018-12-15T15:26:11.798Z,72.41
2018-12-15T15:28:40.909Z,72.84
2018-12-15T15:31:09.998Z,72.58
2018-12-15T15:33:39.082Z,72.82
2018-12-15T15:36:08.199Z,73.23
2018-12-15T15:38:37.204Z,72.42
2018-12-15T15:41:06.215Z,72.50
2018-12-15T15:43:35.357Z,73.24
2018-12-15T15:46:04.490Z,72.55
2018-12-15T15:48:33.548Z,71.90
2018-12-15T15:51:02.620Z,72.17
2018-12-15T15:53:31.772Z,72.28
2018-12-15T15:56:03.931Z,72.36
2018-12-15T15:58:33.305Z,72.91
2018-12-15T16:01:02.342Z,73.09
2018-12-15T16:03:31.443Z,73.33
2018-12-15T16:06:00.615Z,73.36
2018-12-15T16:08:29.607Z,74.02
2018-12-15T16:10:58.626Z,74.20
2018-12-15T16:13:27.805Z,74.20
2018-12-15T16:15:56.796Z,74.58
2018-12-15T16:18:25.964Z,75.32
2018-12-15T16:20:55.031Z,75.75
2018-12-15T16:23:24.157Z,76.45
2018-12-15T16:25:53.211Z,76.44
2018-12-15T16:28:22.367Z,76.66
2018-12-15T16:30:51.646Z,76.92
2018-12-15T16:33:21.280Z,77.28
2018-12-15T16:35:50.415Z,77.38
2018-12-15T16:38:19.434Z,77.36
2018-12-15T16:40:48.563Z,77.70
2018-12-15T16:43:17.585Z,77.88
2018-12-15T16:45:46.600Z,78.70
2018-12-15T16:48:15.624Z,78.89
2018-12-15T16:50:49.930Z,79.26
2018-12-15T16:53:15.728Z,79.29
2018-12-15T16:55:44.785Z,79.39
2018-12-15T16:58:13.761Z,78.92
2018-12-15T17:00:42.840Z,78.66
2018-12-15T17:03:12.015Z,78.79
2018-12-15T17:05:41.196Z,79.00
2018-12-15T17:08:10.341Z,79.41
2018-12-15T17:10:39.363Z,79.46
2018-12-15T17:13:08.466Z,79.72
2018-12-15T17:15:37.512Z,79.99
2018-12-15T17:18:07.264Z,80.12
2018-12-15T17:20:36.404Z,80.35
2018-12-15T17:23:05.523Z,80.67
2018-12-15T17:25:34.575Z,80.57
2018-12-15T17:28:03.666Z,80.73
2018-12-15T17:30:32.705Z,80.76
2018-12-15T17:33:01.718Z,81.25
2018-12-15T17:35:30.912Z,81.32
2018-12-15T17:37:59.983Z,81.43
2018-12-15T17:40:29.034Z,81.23
2018-12-15T17:42:58.115Z,81.33
2018-12-15T17:45:27.125Z,81.20
2018-12-15T17:47:56.293Z,81.52
2018-12-15T17:50:25.828Z,81.78
2018-12-15T17:52:54.919Z,81.77
2018-12-15T17:55:23.948Z,81.76
2018-12-15T17:57:53.246Z,82.05
2018-12-15T18:00:22.355Z,82.07
2018-12-15T18:02:51.426Z,82.20
2018-12-15T18:05:20.503Z,82.43
2018-12-15T18:07:49.635Z,82.78
2018-12-15T18:10:18.732Z,82.40
2018-12-15T18:12:47.832Z,82.24
2018-12-15T18:15:16.932Z,82.44
2018-12-15T18:17:45.981Z,82.51
2018-12-15T18:20:15.108Z,82.01
2018-12-15T18:22:44.121Z,82.15
2018-12-15T18:25:13.225Z,81.94
2018-12-15T18:27:42.286Z,81.99
2018-12-15T18:30:12.186Z,81.96
2018-12-15T18:32:41.202Z,81.88
2018-12-15T18:35:10.497Z,81.85
2018-12-15T18:37:39.677Z,81.98
2018-12-15T18:40:10.072Z,82.14
2018-12-15T18:42:39.186Z,82.12
2018-12-15T18:45:08.341Z,81.62
2018-12-15T18:47:37.366Z,81.55
2018-12-15T18:50:08.574Z,81.66
2018-12-15T18:52:37.582Z,81.54
2018-12-15T18:55:06.698Z,81.58
2018-12-15T18:57:35.843Z,81.76
2018-12-15T19:00:06.692Z,81.31
2018-12-15T19:02:35.720Z,81.10
2018-12-15T19:05:05.014Z,81.10
2018-12-15T19:07:34.847Z,81.18
2018-12-15T19:10:04.761Z,80.98
2018-12-15T19:12:33.798Z,80.82
2018-12-15T19:15:02.960Z,80.82
2018-12-15T19:17:32.007Z,81.40
2018-12-15T19:20:01.003Z,81.29
2018-12-15T19:22:30.131Z,81.36
2018-12-15T19:24:59.307Z,81.64
2018-12-15T19:27:28.314Z,81.78
2018-12-15T19:29:57.322Z,81.92
2018-12-15T19:32:26.509Z,81.69
2018-12-15T19:34:55.680Z,81.74
2018-12-15T19:37:24.944Z,82.28
2018-12-15T19:39:54.022Z,82.47
2018-12-15T19:42:23.144Z,82.50
2018-12-15T19:44:52.217Z,82.38
2018-12-15T19:47:21.460Z,82.09
2018-12-15T19:49:50.524Z,82.12
2018-12-15T19:52:19.720Z,81.97
2018-12-15T19:54:48.777Z,82.10
2018-12-15T19:57:17.839Z,82.30
2018-12-15T19:59:47.501Z,82.31
2018-12-15T20:02:17.237Z,82.04
2018-12-15T20:04:46.448Z,82.11
2018-12-15T20:07:15.634Z,81.95
2018-12-15T20:09:44.930Z,81.86
2018-12-15T20:12:14.052Z,81.43
2018-12-15T20:14:43.328Z,81.38
2018-12-15T20:17:12.480Z,81.45
2018-12-15T20:19:41.798Z,81.19
2018-12-15T20:22:11.135Z,81.48
2018-12-15T20:24:40.445Z,81.46
2018-12-15T20:27:10.159Z,81.45
2018-12-15T20:29:39.252Z,81.28
2018-12-15T20:32:08.806Z,81.27
2018-12-15T20:34:38.099Z,80.96
2018-12-15T20:37:07.361Z,80.76
2018-12-15T20:39:36.563Z,80.42
2018-12-15T20:42:06.043Z,79.57
2018-12-15T20:44:41.531Z,79.35
2018-12-15T20:47:06.519Z,79.38
2018-12-15T20:49:35.650Z,78.91
2018-12-15T20:52:04.996Z,79.07
2018-12-15T20:54:34.266Z,78.42
2018-12-15T20:57:03.297Z,78.17
2018-12-15T20:59:32.433Z,78.40
2018-12-15T21:02:01.504Z,78.54
2018-12-15T21:04:30.601Z,78.54
2018-12-15T21:06:59.768Z,78.56
2018-12-15T21:09:28.925Z,77.87
2018-12-15T21:11:58.150Z,76.94
2018-12-15T21:14:27.208Z,77.33
2018-12-15T21:16:56.311Z,77.37
2018-12-15T21:19:25.395Z,77.62
2018-12-15T21:21:54.635Z,77.71
2018-12-15T21:24:23.734Z,77.67
2018-12-15T21:26:52.958Z,78.01
2018-12-15T21:29:22.069Z,77.87
2018-12-15T21:31:56.695Z,78.17
2018-12-15T21:34:23.356Z,78.10
2018-12-15T21:36:52.499Z,78.28
2018-12-15T21:39:21.659Z,78.53
2018-12-15T21:41:50.991Z,78.87
2018-12-15T21:44:20.053Z,78.50
2018-12-15T21:46:49.244Z,78.27
2018-12-15T21:49:18.396Z,78.69
2018-12-15T21:51:48.747Z,78.59
2018-12-15T21:54:17.847Z,78.89
2018-12-15T21:56:47.077Z,79.13
2018-12-15T21:59:16.292Z,79.75
2018-12-15T22:01:45.360Z,79.86
2018-12-15T22:04:15.258Z,79.98
2018-12-15T22:06:45.509Z,80.35
2018-12-15T22:09:15.059Z,80.65
2018-12-15T22:11:44.537Z,81.24
2018-12-15T22:14:13.743Z,81.31
2018-12-15T22:16:42.872Z,81.08
2018-12-15T22:19:12.455Z,81.29
2018-12-15T22:21:41.853Z,81.63
2018-12-15T22:24:11.192Z,81.68
2018-12-15T22:26:40.284Z,82.24
2018-12-15T22:29:09.334Z,82.56
2018-12-15T22:31:38.579Z,82.89
2018-12-15T22:34:07.688Z,83.07
2018-12-15T22:36:36.901Z,83.50
2018-12-15T22:39:07.647Z,84.08
2018-12-15T22:41:38.163Z,83.88
2018-12-15T22:44:07.310Z,84.57
2018-12-15T22:46:36.444Z,84.77
2018-12-15T22:49:05.571Z,85.07
2018-12-15T22:51:35.095Z,85.38
2018-12-15T22:54:04.471Z,85.81
2018-12-15T22:56:33.502Z,85.92
2018-12-15T22:59:02.564Z,86.47
2018-12-15T23:01:37.091Z,86.99
2018-12-15T23:04:06.844Z,87.21
2018-12-15T23:06:35.947Z,87.52
2018-12-15T23:09:06.947Z,87.73
2018-12-15T23:11:36.061Z,87.96
2018-12-15T23:14:05.127Z,88.27
2018-12-15T23:16:34.201Z,88.21
2018-12-15T23:19:03.321Z,88.72
2018-12-15T23:21:32.321Z,88.84
2018-12-15T23:24:01.372Z,88.99
2018-12-15T23:26:30.390Z,89.13
2018-12-15T23:28:59.393Z,89.51
2018-12-15T23:31:28.618Z,89.53
2018-12-15T23:33:57.674Z,89.50
2018-12-15T23:36:26.772Z,89.71
2018-12-15T23:38:55.854Z,90.04
2018-12-15T23:41:24.978Z,90.38
2018-12-15T23:43:54.150Z,90.51
2018-12-15T23:46:23.414Z,90.56
2018-12-15T23:48:52.442Z,90.66
2018-12-15T23:51:21.419Z,90.69
2018-12-15T23:53:50.820Z,90.86
2018-12-15T23:56:21.197Z,90.95
2018-12-15T23:58:50.289Z,90.84
